Flight Track Log - Related Links

Times and Time Zones

All times are in EDT time to prevent confusion due to time zone crossing. See the RPA3321 flight status page for this flight to view local times or setup timezone preferences in your user account.

Time Position Orientation Groundspeed Altitude Reporting Facility
EDT Latitude Longitude Course Direction KTS MPH feet Rate Location/Type
Thu 05:36:50 AM 42.7672 -73.8061 172° South 155 178 1,400  Level Boston Center
Thu 05:37:32 AM 42.8025 -73.8211 343° North 194 223 2,800 2,647 Climbing Boston Center
Thu 05:39:00 AM 42.5078 -74.0162 171° South  Level Estimated
Thu 05:39:06 AM 42.8658 -73.9217 311° West 250 288 7,400  Level Boston Center
Thu 05:40:00 AM 42.4273 -74.0872 180° South  Level Estimated
Thu 05:40:06 AM 42.8031 -73.9542 201° Southwest 169 194 10,000  Level Boston Center
Thu 05:41:00 AM 42.3467 -74.1581 172° South  Level Estimated
Thu 05:41:06 AM 42.7158 -73.9236 166° South 207 238 11,900  Level Boston Center
Thu 05:42:00 AM 42.2661 -74.2287 172° South  Level Estimated
Thu 05:42:06 AM 42.6225 -73.8933 167° South 280 322 14,400  Level Boston Center
Thu 05:43:06 AM 42.5250 -73.8542 164° South 358 412 17,200 2,300 Climbing Boston Center
Thu 05:44:06 AM 42.4358 -73.8242 166° South 368 423 19,000 1,800 Climbing Boston Center
Thu 05:45:06 AM 42.3256 -73.7908 167° South 374 430 20,800 1,750 Climbing Boston Center
Thu 05:46:06 AM 42.2178 -73.7547 166° South 379 436 22,500 1,850 Climbing Boston Center
Thu 05:47:06 AM 42.1056 -73.7161 166° South 401 461 24,500 1,750 Climbing Boston Center
Thu 05:48:06 AM 41.9894 -73.6775 166° South 422 486 26,000 750 Climbing Boston Center
Thu 05:49:06 AM 41.8731 -73.6417 167° South 432 497 26,000  Level Boston Center
Thu 05:50:50 AM 41.6706 -73.6261 177° South 407 468 26,000  Level New York Center
Thu 05:51:49 AM 41.5700 -73.6578 193° South 396 456 26,000  Level New York Center
Thu 05:52:50 AM 41.4606 -73.6972 195° South 396 456 26,000  Level New York Center
Thu 05:53:48 AM 41.3536 -73.7339 194° South 396 456 26,000  Level New York Center
Thu 05:54:50 AM 41.2464 -73.7678 193° South 401 461 26,000  Level New York Center
Thu 05:55:48 AM 41.1453 -73.8186 201° Southwest 401 461 26,000  Level New York Center
Thu 05:56:49 AM 41.0864 -73.9178 232° Southwest 384 442 26,000  Level New York Center
Thu 05:57:51 AM 41.0231 -74.0247 232° Southwest 372 428 26,000  Level New York Center
Thu 05:58:49 AM 40.9575 -74.1314 231° Southwest 378 435 26,000  Level New York Center
Thu 05:59:49 AM 40.8833 -74.2486 230° Southwest 378 435 26,000  Level New York Center
Thu 06:00:51 AM 40.8156 -74.3575 231° Southwest 383 441 26,000  Level New York Center
Thu 06:01:49 AM 40.7517 -74.4636 232° Southwest 388 447 26,000  Level New York Center
Thu 06:02:49 AM 40.6858 -74.5750 232° Southwest 388 447 26,000  Level New York Center
Thu 06:03:50 AM 40.6197 -74.6808 231° Southwest 388 447 26,000  Level New York Center
Thu 06:04:50 AM 40.5494 -74.7914 230° Southwest 388 447 26,000  Level New York Center
Thu 06:05:48 AM 40.4750 -74.8933 226° Southwest 394 453 26,000 -101 Level New York Center
Thu 06:06:49 AM 40.4003 -75.0033 228° Southwest 399 459 25,800 -744 Descending New York Center
Thu 06:07:49 AM 40.3256 -75.1106 228° Southwest 399 459 24,500 -1,289 Descending New York Center
Thu 06:08:50 AM 40.2531 -75.2119 227° Southwest 399 459 23,200 -1,190 Descending New York Center
Thu 06:09:50 AM 40.1825 -75.3108 227° Southwest 399 459 22,100 -605 Descending New York Center
Thu 06:10:49 AM 40.1119 -75.4067 226° Southwest 387 445 22,000 -50 Descending New York Center
Thu 06:11:49 AM 40.0414 -75.5075 228° Southwest 387 445 22,000  Level New York Center
Thu 06:12:48 AM 39.9747 -75.6089 229° Southwest 382 440 22,000  Level New York Center
Thu 06:13:49 AM 39.9144 -75.7019 230° Southwest 382 440 22,000  Level New York Center
Thu 06:14:49 AM 39.8475 -75.8083 231° Southwest 382 440 22,000 -424 Level New York Center
Thu 06:17:07 AM 39.6833 -76.0500 229° Southwest 376 433 20,600 -1,212 Descending Potomac TRACON
Thu 06:18:07 AM 39.6167 -76.1500 229° Southwest 357 411 18,000 -2,368 Descending Potomac TRACON
Thu 06:19:01 AM 39.5667 -76.2500 237° Southwest 351 404 16,100 -2,263 Descending Potomac TRACON
Thu 06:20:01 AM 39.5000 -76.3333 224° Southwest 332 382 13,700 -2,050 Descending Potomac TRACON
Thu 06:21:01 AM 39.4500 -76.4167 232° Southwest 315 362 12,000 -1,250 Descending Potomac TRACON
Thu 06:22:01 AM 39.3667 -76.4833 212° Southwest 318 366 11,200 -889 Descending Potomac TRACON
Thu 06:22:49 AM 39.3167 -76.5333 218° Southwest 321 369 10,400 -667 Descending Potomac TRACON
Thu 06:23:49 AM 39.2333 -76.6000 212° Southwest 313 360 10,000 -211 Descending Potomac TRACON
Thu 06:24:43 AM 39.1833 -76.6500 218° Southwest 298 343 10,000  Level Potomac TRACON
Thu 06:25:37 AM 39.1333 -76.7167 226° Southwest 288 331 10,000  Level Potomac TRACON
Thu 06:26:37 AM 39.1000 -76.8167 247° West 281 323 10,000 -500 Level Potomac TRACON
Thu 06:27:37 AM 39.0833 -76.9167 258° West 277 319 9,000 -1,850 Descending Potomac TRACON
Thu 06:28:37 AM 39.0667 -77.0000 256° West 265 305 6,300 -2,895 Descending Potomac TRACON
Thu 06:29:31 AM 39.0333 -77.0833 243° Southwest 268 308 3,500 -1,895 Descending Potomac TRACON
Thu 06:30:31 AM 38.9833 -77.1333 218° Southwest 228 262 2,700 -700 Descending Potomac TRACON
Thu 06:31:31 AM 38.9333 -77.1333 180° South 187 215 2,100 -600 Descending Potomac TRACON

Login

Don't have an account? Register now (free) for customized features, flight alerts, and more!